Time;durP1;ratioP1;P1;durP2;ratioP2;P2;SDS_P1;SDS_P2;PMS_P1;PMS_P2;Temp;Humidity;BMP_temperature;BMP_pressure;BME280_temperature;BME280_humidity;BME280_pressure;Samples;Min_cycle;Max_cycle;Signal;HPM_P1;HPM_P2
2023/09/29 00:00:54;;;;;;;3.53;0.60;;;;;;;17.16;70.05;101159.97;5064714;28;20032;-68
2023/09/29 00:03:19;;;;;;;2.40;0.70;;;;;;;17.06;71.04;101154.88;5058780;28;20627;-68
2023/09/29 00:05:45;;;;;;;2.97;0.68;;;;;;;16.82;72.09;101155.78;5059708;28;20045;-68
2023/09/29 00:08:16;;;;;;;1.85;0.75;;;;;;;16.59;73.04;101154.81;5057034;28;20021;-68
2023/09/29 00:10:45;;;;;;;2.25;0.80;;;;;;;16.42;74.20;101169.00;5063069;28;20123;-68
2023/09/29 00:13:11;;;;;;;1.95;0.95;;;;;;;16.31;74.71;101167.50;5058281;28;20392;-68
2023/09/29 00:15:37;;;;;;;4.50;0.85;;;;;;;16.23;74.80;101163.06;5055907;28;20420;-68
2023/09/29 00:18:09;;;;;;;2.92;0.60;;;;;;;16.12;75.36;101158.13;5067214;28;20123;-68
2023/09/29 00:20:35;;;;;;;4.00;0.85;;;;;;;16.03;75.86;101159.13;5060007;28;20028;-68
2023/09/29 00:23:01;;;;;;;1.80;0.85;;;;;;;16.00;75.81;101162.09;5062056;28;20040;-68
2023/09/29 00:25:27;;;;;;;1.65;0.70;;;;;;;15.99;76.27;101159.63;5061786;28;20452;-68
2023/09/29 00:27:55;;;;;;;2.58;0.88;;;;;;;15.95;76.57;101153.88;5059774;28;20064;-68
2023/09/29 00:30:21;;;;;;;1.83;0.82;;;;;;;15.92;76.78;101152.38;5062781;28;20036;-68
2023/09/29 00:32:48;;;;;;;1.73;0.63;;;;;;;15.93;76.91;101151.41;5060901;28;20040;-68
2023/09/29 00:37:51;;;;;;;1.08;0.43;;;;;;;16.18;75.34;101141.72;5058639;28;20462;-68
2023/09/29 00:40:16;;;;;;;0.95;0.40;;;;;;;16.73;72.18;101146.28;5055903;28;20046;-67
2023/09/29 00:42:43;;;;;;;1.95;0.63;;;;;;;16.98;71.44;101141.78;5059869;28;20372;-67
2023/09/29 00:45:10;;;;;;;2.40;0.63;;;;;;;17.05;71.37;101139.25;5054810;28;20502;-67
2023/09/29 00:47:37;;;;;;;3.92;0.80;;;;;;;17.06;71.23;101138.25;5060498;28;20062;-67
2023/09/29 00:50:09;;;;;;;5.70;0.60;;;;;;;17.02;71.59;101129.06;5060294;28;20498;-68
2023/09/29 00:52:38;;;;;;;1.95;0.88;;;;;;;17.01;71.37;101127.47;5058420;28;20025;-68
2023/09/29 00:55:15;;;;;;;1.20;0.50;;;;;;;17.15;70.67;101127.53;5069526;28;20162;-68
2023/09/29 00:57:42;;;;;;;1.70;0.73;;;;;;;17.22;70.55;101130.31;5059395;28;20396;-67
2023/09/29 01:03:04;;;;;;;1.40;0.57;;;;;;;17.23;70.13;101127.50;5065027;28;20095;-68
2023/09/29 01:05:31;;;;;;;2.40;0.93;;;;;;;17.31;69.54;101131.09;5068213;28;20041;-67
2023/09/29 01:07:56;;;;;;;2.08;0.50;;;;;;;17.53;68.12;101132.94;5068130;28;20496;-67
2023/09/29 01:10:24;;;;;;;2.50;0.85;;;;;;;17.80;67.36;101126.38;5065807;28;20044;-67
2023/09/29 01:12:49;;;;;;;1.90;0.40;;;;;;;17.85;66.64;101126.69;5068406;28;20095;-67
2023/09/29 01:15:19;;;;;;;3.60;0.70;;;;;;;17.94;66.54;101125.63;5068997;28;20032;-66
2023/09/29 01:17:44;;;;;;;4.38;0.60;;;;;;;17.95;66.74;101127.28;5066318;28;20072;-68
2023/09/29 01:20:17;;;;;;;1.27;0.50;;;;;;;17.88;66.69;101126.34;5065507;28;20063;-67
2023/09/29 01:22:47;;;;;;;1.60;0.50;;;;;;;17.97;66.31;101127.88;5067401;28;20112;-67
2023/09/29 01:25:17;;;;;;;1.48;0.30;;;;;;;18.02;66.22;101125.53;5070171;28;20044;-68
2023/09/29 01:27:43;;;;;;;1.08;0.40;;;;;;;18.00;65.78;101132.00;5070452;28;20488;-68
2023/09/29 01:30:10;;;;;;;1.88;0.60;;;;;;;17.83;66.88;101126.03;5069164;28;20056;-67
2023/09/29 01:32:35;;;;;;;1.73;0.40;;;;;;;17.61;67.52;101122.34;5071418;28;20085;-67
2023/09/29 01:35:02;;;;;;;2.38;0.70;;;;;;;17.56;67.82;101122.88;5069649;28;20029;-67
2023/09/29 01:37:28;;;;;;;1.48;0.60;;;;;;;17.52;68.00;101126.03;5066461;28;20028;-66
2023/09/29 01:39:53;;;;;;;1.45;0.80;;;;;;;17.47;68.28;101134.47;5069485;28;20032;-67
2023/09/29 01:42:19;;;;;;;1.30;0.50;;;;;;;17.44;68.46;101129.56;5068866;28;20056;-67
2023/09/29 01:44:44;;;;;;;3.35;1.05;;;;;;;17.46;68.45;101124.94;5063568;28;20111;-68
2023/09/29 01:47:10;;;;;;;0.98;0.52;;;;;;;17.44;68.33;101116.38;5068610;28;20492;-68
2023/09/29 01:49:36;;;;;;;4.60;0.60;;;;;;;17.37;69.01;101118.06;5068639;28;20025;-68
2023/09/29 01:52:02;;;;;;;3.47;0.70;;;;;;;17.36;68.75;101119.06;5068832;28;20099;-67
2023/09/29 01:54:28;;;;;;;1.15;0.60;;;;;;;17.33;68.96;101116.75;5070729;28;20124;-66
2023/09/29 01:56:53;;;;;;;2.63;0.50;;;;;;;17.24;69.30;101120.44;5072145;28;20052;-68
2023/09/29 01:59:19;;;;;;;1.98;0.70;;;;;;;17.22;69.68;101122.41;5065713;28;20049;-68
2023/09/29 02:01:45;;;;;;;5.03;0.70;;;;;;;17.17;69.40;101122.09;5067839;28;20462;-70
2023/09/29 02:04:11;;;;;;;4.53;0.77;;;;;;;17.13;69.65;101119.00;5070439;28;20060;-68
2023/09/29 02:06:37;;;;;;;2.78;0.70;;;;;;;17.22;68.97;101114.50;5065788;28;20071;-67
2023/09/29 02:09:07;;;;;;;1.38;0.57;;;;;;;17.31;68.88;101123.19;5066532;28;20020;-67
2023/09/29 02:11:33;;;;;;;0.98;0.70;;;;;;;17.29;69.17;101123.38;5067957;28;20062;-67
2023/09/29 02:13:58;;;;;;;2.10;0.95;;;;;;;17.21;69.17;101123.41;5068130;28;20036;-68
2023/09/29 02:16:24;;;;;;;2.17;0.75;;;;;;;17.10;70.03;101119.34;5066378;28;20036;-67
2023/09/29 02:18:50;;;;;;;5.05;0.60;;;;;;;17.02;70.36;101124.63;5065481;28;20142;-66
2023/09/29 02:21:22;;;;;;;3.13;0.85;;;;;;;16.94;70.87;101118.59;5067677;28;20032;-67
2023/09/29 02:23:48;;;;;;;3.70;0.82;;;;;;;16.89;71.18;101124.38;5067627;28;20032;-67
2023/09/29 02:26:14;;;;;;;2.50;0.80;;;;;;;16.87;71.66;101118.44;5066205;28;20058;-67
2023/09/29 02:28:40;;;;;;;2.97;0.60;;;;;;;16.84;71.27;101116.97;5069208;28;20027;-68
2023/09/29 02:31:12;;;;;;;2.13;0.82;;;;;;;16.79;71.93;101110.56;5066073;28;20131;-67
2023/09/29 02:33:40;;;;;;;3.45;0.82;;;;;;;16.86;71.00;101117.63;5066982;28;20086;-67
2023/09/29 02:36:08;;;;;;;2.50;0.60;;;;;;;16.88;71.00;101113.03;5063662;28;20183;-67
2023/09/29 02:38:36;;;;;;;1.67;0.60;;;;;;;16.80;71.54;101120.13;5060673;28;20063;-69
2023/09/29 02:41:02;;;;;;;1.75;0.60;;;;;;;16.69;71.71;101105.50;5063310;28;20029;-68
2023/09/29 02:43:30;;;;;;;2.05;0.70;;;;;;;16.60;72.36;101120.44;5061803;28;20032;-67
2023/09/29 02:45:56;;;;;;;1.58;0.80;;;;;;;16.55;72.51;101116.69;5063408;28;20054;-67
2023/09/29 02:48:22;;;;;;;2.83;0.90;;;;;;;16.47;72.83;101114.09;5065413;28;20032;-67
2023/09/29 02:50:48;;;;;;;1.98;0.80;;;;;;;16.42;72.74;101111.13;5062837;28;20025;-67
2023/09/29 02:53:14;;;;;;;1.95;0.70;;;;;;;16.43;72.48;101108.34;5068691;28;20082;-67
2023/09/29 02:55:40;;;;;;;3.05;0.77;;;;;;;16.48;72.58;101110.47;5067494;28;20040;-68
2023/09/29 02:58:07;;;;;;;1.50;0.47;;;;;;;16.51;72.32;101113.59;5066626;28;20063;-66
2023/09/29 03:00:32;;;;;;;2.03;0.65;;;;;;;16.52;71.98;101114.41;5066036;28;20492;-68
2023/09/29 03:02:58;;;;;;;1.88;0.77;;;;;;;16.53;72.36;101113.41;5063181;28;20040;-67
2023/09/29 03:05:25;;;;;;;1.85;0.77;;;;;;;16.41;72.78;101114.75;5066088;28;20142;-67
2023/09/29 03:07:51;;;;;;;1.83;0.73;;;;;;;16.25;74.58;101116.41;5059760;28;20021;-67
2023/09/29 03:10:17;;;;;;;3.33;0.70;;;;;;;16.20;74.04;101113.44;5061160;28;20036;-68
2023/09/29 03:12:45;;;;;;;3.03;0.80;;;;;;;16.09;74.97;101116.41;5060048;28;20024;-68
2023/09/29 03:15:15;;;;;;;5.13;0.60;;;;;;;16.00;75.67;101114.78;5066243;28;20033;-67
2023/09/29 03:17:44;;;;;;;3.70;1.17;;;;;;;15.85;76.31;101114.59;5059365;28;20040;-68
2023/09/29 03:20:13;;;;;;;2.90;0.85;;;;;;;15.70;76.94;101110.13;5063063;28;20037;-68
2023/09/29 03:22:40;;;;;;;4.90;0.85;;;;;;;15.74;76.88;101114.91;5057738;28;20037;-68
2023/09/29 03:25:07;;;;;;;2.00;0.75;;;;;;;15.82;76.82;101109.66;5064861;28;20037;-67
2023/09/29 03:27:34;;;;;;;3.95;0.98;;;;;;;15.81;77.03;101117.72;5066773;28;20488;-68
2023/09/29 03:30:00;;;;;;;1.58;0.50;;;;;;;15.80;76.38;101119.53;5067644;28;20040;-68
2023/09/29 03:32:26;;;;;;;3.45;0.80;;;;;;;15.88;76.46;101111.66;5063251;28;20077;-68
2023/09/29 03:34:52;;;;;;;1.60;0.70;;;;;;;15.89;76.06;101110.66;5060502;28;20488;-67
2023/09/29 03:37:18;;;;;;;2.33;0.90;;;;;;;15.93;75.73;101098.84;5057090;28;20059;-68
2023/09/29 03:39:44;;;;;;;2.88;0.90;;;;;;;15.87;75.88;101103.94;5061379;28;20076;-67
2023/09/29 03:42:09;;;;;;;2.95;0.98;;;;;;;15.88;75.64;101108.19;5061242;28;20115;-67
2023/09/29 03:44:35;;;;;;;2.08;0.70;;;;;;;15.81;76.55;101109.84;5062440;28;20036;-67
2023/09/29 03:47:00;;;;;;;2.50;1.20;;;;;;;15.77;76.66;101111.13;5066437;28;20021;-68
2023/09/29 03:49:26;;;;;;;3.03;0.82;;;;;;;15.78;76.22;101103.09;5060788;28;20059;-68
2023/09/29 03:51:52;;;;;;;1.63;0.60;;;;;;;15.82;75.73;101103.59;5060866;28;20036;-67
2023/09/29 03:54:18;;;;;;;2.33;0.85;;;;;;;15.89;75.46;101102.78;5067938;28;20033;-66
2023/09/29 03:56:44;;;;;;;2.88;0.80;;;;;;;15.99;74.47;101099.19;5060031;28;20037;-68
2023/09/29 03:59:10;;;;;;;1.55;0.65;;;;;;;15.98;74.61;101095.72;5061302;28;20123;-67
2023/09/29 04:01:36;;;;;;;2.53;0.80;;;;;;;16.01;74.42;101103.28;5060691;28;20039;-67
2023/09/29 04:04:02;;;;;;;2.08;0.80;;;;;;;16.01;74.70;101103.28;5065692;28;20025;-67
2023/09/29 04:06:28;;;;;;;1.33;0.75;;;;;;;15.95;75.16;101095.22;5063838;28;20070;-67
2023/09/29 04:08:55;;;;;;;2.13;0.90;;;;;;;15.92;75.58;101110.34;5061767;28;20024;-68
2023/09/29 04:11:21;;;;;;;2.25;0.90;;;;;;;15.84;75.25;101118.22;5060556;28;20029;-67
2023/09/29 04:13:46;;;;;;;2.90;1.20;;;;;;;15.71;76.02;101106.53;5068273;28;20179;-67
2023/09/29 04:16:14;;;;;;;3.80;0.75;;;;;;;15.63;76.61;101103.88;5065713;28;20079;-67
2023/09/29 04:18:39;;;;;;;2.55;1.10;;;;;;;15.61;76.44;101109.31;5062435;28;20041;-67
2023/09/29 04:21:11;;;;;;;1.88;0.90;;;;;;;15.63;76.50;101101.25;5060175;28;20035;-67
2023/09/29 04:23:37;;;;;;;3.22;1.08;;;;;;;15.53;77.35;101104.84;5064912;28;20067;-67
2023/09/29 04:26:02;;;;;;;3.50;1.27;;;;;;;15.39;78.15;101105.47;5066881;28;20127;-68
2023/09/29 04:28:28;;;;;;;3.70;0.88;;;;;;;15.24;78.84;101107.06;5065080;28;20138;-68
2023/09/29 04:30:53;;;;;;;1.65;0.98;;;;;;;15.14;79.36;101099.31;5057288;28;20102;-68
2023/09/29 04:33:19;;;;;;;3.35;0.82;;;;;;;15.04;79.77;101111.75;5058721;28;20036;-68
2023/09/29 04:35:44;;;;;;;3.70;0.90;;;;;;;15.23;78.73;101108.03;5058191;28;20765;-69
2023/09/29 04:38:10;;;;;;;1.88;0.80;;;;;;;15.40;77.56;101108.91;5063033;28;20027;-69
2023/09/29 04:40:35;;;;;;;3.17;1.25;;;;;;;15.38;77.52;101101.19;5064497;28;20028;-69
2023/09/29 04:43:03;;;;;;;4.03;1.13;;;;;;;15.30;78.58;101113.47;5056686;28;20249;-68
2023/09/29 04:45:28;;;;;;;2.78;0.63;;;;;;;15.28;78.04;101111.00;5067750;28;20036;-68
2023/09/29 04:47:54;;;;;;;2.13;1.00;;;;;;;15.31;77.68;101110.69;5080056;28;20036;-67
2023/09/29 04:50:20;;;;;;;2.90;1.02;;;;;;;15.36;77.16;101118.09;5070292;28;20047;-68
2023/09/29 04:52:45;;;;;;;2.15;0.80;;;;;;;15.41;77.32;101111.38;5067781;28;20059;-69
2023/09/29 04:55:11;;;;;;;1.85;1.13;;;;;;;15.36;77.38;101116.28;5067632;28;20119;-69
2023/09/29 04:57:36;;;;;;;2.10;1.30;;;;;;;15.27;78.05;101112.81;5068380;28;20054;-68
2023/09/29 05:00:03;;;;;;;2.00;1.02;;;;;;;15.25;77.69;101124.44;5071423;28;20116;-68
2023/09/29 05:02:30;;;;;;;2.03;1.00;;;;;;;15.24;77.85;101120.19;5071545;28;20185;-68
2023/09/29 05:04:56;;;;;;;2.80;0.90;;;;;;;15.19;77.58;101117.19;5072389;28;20360;-69
2023/09/29 05:07:22;;;;;;;4.60;1.10;;;;;;;15.18;77.86;101119.00;5072399;28;20452;-68
2023/09/29 05:09:47;;;;;;;2.55;0.80;;;;;;;15.17;78.13;101119.97;5075881;28;20025;-69
2023/09/29 05:12:13;;;;;;;2.78;0.88;;;;;;;15.18;78.10;101115.56;5074926;28;20033;-69
2023/09/29 05:14:38;;;;;;;3.55;1.15;;;;;;;15.17;78.10;101116.53;5068843;28;20033;-69
2023/09/29 05:17:03;;;;;;;2.58;0.93;;;;;;;15.21;78.07;101120.50;5071753;28;20032;-67
2023/09/29 05:19:29;;;;;;;2.67;0.82;;;;;;;15.28;77.89;101127.56;5070825;28;20035;-69
2023/09/29 05:21:54;;;;;;;1.70;0.73;;;;;;;15.38;76.52;101124.81;5071735;28;20387;-69
2023/09/29 05:24:20;;;;;;;6.25;1.00;;;;;;;15.45;76.19;101120.59;5069690;28;20029;-69
2023/09/29 05:26:45;;;;;;;4.07;1.08;;;;;;;15.49;77.03;101124.53;5070090;28;20064;-69
2023/09/29 05:29:11;;;;;;;3.13;1.20;;;;;;;15.42;77.03;101131.41;5072329;28;20028;-69
2023/09/29 05:31:36;;;;;;;3.10;1.02;;;;;;;15.36;77.24;101128.59;5065928;28;20041;-72
2023/09/29 05:34:02;;;;;;;2.05;1.02;;;;;;;15.32;77.40;101130.72;5067659;28;20062;-69
2023/09/29 05:36:29;;;;;;;1.83;0.85;;;;;;;15.31;77.38;101130.88;5068054;28;20464;-69
2023/09/29 05:38:55;;;;;;;1.58;0.98;;;;;;;15.34;77.55;101131.38;5070083;28;20067;-68
2023/09/29 05:41:20;;;;;;;3.58;1.08;;;;;;;15.41;76.97;101140.25;5069478;28;20571;-68
2023/09/29 05:43:46;;;;;;;3.00;0.80;;;;;;;15.51;76.70;101142.75;5065026;28;20055;-69
2023/09/29 05:46:14;;;;;;;2.35;0.60;;;;;;;15.61;75.88;101132.94;5065726;28;20035;-69
2023/09/29 05:48:40;;;;;;;1.30;0.60;;;;;;;15.75;75.51;101139.38;5066266;28;20025;-68
2023/09/29 05:51:05;;;;;;;2.65;0.85;;;;;;;15.81;75.67;101139.56;5064432;28;20083;-68
2023/09/29 05:53:31;;;;;;;1.95;0.55;;;;;;;15.75;76.32;101142.81;5061702;28;20040;-69
2023/09/29 05:55:56;;;;;;;2.55;1.10;;;;;;;15.63;77.48;101140.66;5059934;28;20037;-69
2023/09/29 05:58:22;;;;;;;1.90;0.60;;;;;;;15.62;77.09;101142.47;5064241;28;20032;-69
2023/09/29 06:00:48;;;;;;;3.13;0.88;;;;;;;15.83;75.60;101134.97;5066722;28;20910;-68
2023/09/29 06:03:13;;;;;;;3.03;1.13;;;;;;;15.99;75.11;101141.22;5066160;28;20106;-69
2023/09/29 06:05:39;;;;;;;2.72;0.90;;;;;;;16.12;74.52;101136.28;5060305;28;20059;-69
2023/09/29 06:08:06;;;;;;;2.60;0.60;;;;;;;16.22;74.14;101132.50;5062815;28;20480;-69
2023/09/29 06:10:31;;;;;;;1.42;0.63;;;;;;;16.36;72.81;101146.81;5063637;28;21376;-69
2023/09/29 06:12:57;;;;;;;3.85;0.77;;;;;;;16.47;72.95;101145.66;5072697;28;20028;-70
2023/09/29 06:15:23;;;;;;;3.13;0.93;;;;;;;16.52;72.50;101146.78;5060433;28;20029;-69
2023/09/29 06:17:48;;;;;;;1.55;0.57;;;;;;;16.60;72.01;101149.38;5056712;28;20039;-68
2023/09/29 06:20:14;;;;;;;2.67;0.80;;;;;;;16.75;71.73;101144.28;5070086;28;20033;-69
2023/09/29 06:22:39;;;;;;;1.35;0.60;;;;;;;16.84;71.48;101153.00;5071229;28;20059;-68
2023/09/29 06:25:05;;;;;;;3.72;0.68;;;;;;;16.91;71.45;101154.78;5071234;28;20123;-69
2023/09/29 06:27:31;;;;;;;1.98;0.90;;;;;;;17.00;71.77;101163.50;5069839;28;20032;-68
2023/09/29 06:29:56;;;;;;;1.95;1.10;;;;;;;17.03;73.07;101157.03;5069456;28;20059;-68
2023/09/29 06:32:22;;;;;;;2.33;0.88;;;;;;;16.98;73.60;101164.66;5067939;28;20040;-69
2023/09/29 06:34:47;;;;;;;2.35;0.73;;;;;;;16.91;73.99;101162.69;5071304;28;20025;-67
2023/09/29 06:37:13;;;;;;;3.53;0.82;;;;;;;16.95;73.73;101167.63;5069731;28;20024;-68
2023/09/29 06:39:38;;;;;;;4.32;0.95;;;;;;;17.03;73.62;101164.94;5067704;28;20052;-68
2023/09/29 06:42:04;;;;;;;6.15;1.17;;;;;;;17.20;73.09;101166.53;5064957;28;20152;-67
2023/09/29 06:44:32;;;;;;;4.22;1.00;;;;;;;17.38;72.15;101177.66;5065463;28;20123;-68
2023/09/29 06:46:57;;;;;;;6.80;1.05;;;;;;;17.48;72.09;101182.72;5067293;28;20051;-67
2023/09/29 06:49:23;;;;;;;3.95;1.00;;;;;;;17.57;71.75;101176.38;5064598;28;20108;-68
2023/09/29 06:51:48;;;;;;;3.28;0.73;;;;;;;17.69;71.10;101175.03;5063732;28;20773;-68
2023/09/29 06:54:14;;;;;;;3.60;0.60;;;;;;;17.90;69.13;101177.06;5062291;28;20075;-66
2023/09/29 06:56:39;;;;;;;1.73;0.73;;;;;;;18.01;69.10;101179.28;5058737;28;20484;-67
2023/09/29 06:59:05;;;;;;;4.43;0.65;;;;;;;18.09;68.70;101183.66;5062649;28;20633;-67
2023/09/29 07:01:30;;;;;;;3.58;0.90;;;;;;;18.11;69.03;101179.03;5067891;28;20036;-68
2023/09/29 07:03:55;;;;;;;4.43;0.80;;;;;;;18.20;68.30;101180.63;5065871;28;20033;-67
2023/09/29 07:06:23;;;;;;;4.90;0.95;;;;;;;18.23;67.62;101175.81;5062592;28;20082;-67
2023/09/29 07:08:49;;;;;;;4.88;0.95;;;;;;;18.33;67.27;101178.22;5064062;28;20456;-67
2023/09/29 07:11:14;;;;;;;2.15;0.73;;;;;;;18.43;66.64;101183.25;5067220;28;20025;-68
2023/09/29 07:13:40;;;;;;;1.92;0.80;;;;;;;18.36;67.16;101183.13;5069576;28;20051;-65
2023/09/29 07:16:05;;;;;;;2.85;0.80;;;;;;;18.36;67.19;101188.41;5070783;28;20040;-69
2023/09/29 07:18:31;;;;;;;2.33;0.60;;;;;;;18.46;67.13;101191.59;5069049;28;20036;-67
2023/09/29 07:20:59;;;;;;;3.72;0.60;;;;;;;18.51;67.12;101185.78;5069146;28;20020;-68
2023/09/29 07:23:24;;;;;;;4.55;0.80;;;;;;;18.62;67.03;101187.22;5067445;28;20032;-65
2023/09/29 07:25:53;;;;;;;2.92;0.60;;;;;;;18.65;66.12;101187.69;5069173;28;20040;-65
2023/09/29 07:28:20;;;;;;;1.90;0.70;;;;;;;18.67;66.29;101188.31;5068286;28;20075;-65
2023/09/29 07:30:47;;;;;;;3.08;1.25;;;;;;;18.69;66.75;101183.69;5054985;28;20123;-66
2023/09/29 07:33:12;;;;;;;2.15;0.75;;;;;;;18.73;67.09;101190.25;5063051;28;20503;-66
2023/09/29 07:35:39;;;;;;;2.28;0.80;;;;;;;18.73;67.08;101190.25;5068195;28;20040;-65
2023/09/29 07:38:05;;;;;;;2.05;0.75;;;;;;;18.89;66.45;101189.25;5068133;28;20029;-65
2023/09/29 07:40:34;;;;;;;1.98;0.80;;;;;;;18.92;65.96;101182.78;5064370;28;20123;-66
2023/09/29 07:43:00;;;;;;;4.05;0.50;;;;;;;19.06;66.07;101189.88;5059698;28;20036;-66
2023/09/29 07:45:26;;;;;;;2.20;0.60;;;;;;;19.09;66.46;101192.16;5061266;28;20028;-65
2023/09/29 07:47:52;;;;;;;2.85;0.57;;;;;;;19.20;65.63;101192.53;5070501;28;20036;-65
2023/09/29 07:50:19;;;;;;;1.38;0.50;;;;;;;19.34;65.33;101190.88;5068782;28;20048;-66
2023/09/29 07:52:44;;;;;;;1.85;0.82;;;;;;;19.44;65.26;101188.75;5068240;28;20067;-65
2023/09/29 07:55:11;;;;;;;1.67;0.50;;;;;;;19.64;64.32;101194.31;5068478;28;20373;-65
2023/09/29 07:57:36;;;;;;;1.73;0.60;;;;;;;19.81;63.49;101194.91;5068027;28;20051;-66
2023/09/29 08:00:05;;;;;;;3.13;0.95;;;;;;;19.85;64.02;101201.44;5067186;28;20045;-66
2023/09/29 08:02:31;;;;;;;2.17;0.60;;;;;;;19.83;64.44;101192.91;5064320;28;20056;-65
2023/09/29 08:04:57;;;;;;;3.60;0.50;;;;;;;19.95;64.26;101201.97;5066663;28;20052;-66
2023/09/29 08:07:23;;;;;;;1.20;0.40;;;;;;;19.93;64.50;101203.16;5066032;28;20419;-66
2023/09/29 08:09:50;;;;;;;1.08;0.40;;;;;;;19.90;65.39;101209.63;5066794;28;20029;-66
2023/09/29 08:12:17;;;;;;;2.67;0.57;;;;;;;19.93;64.83;101201.31;5063894;28;20020;-65
2023/09/29 08:14:42;;;;;;;5.45;0.43;;;;;;;20.08;64.36;101211.84;5059506;28;20043;-66
2023/09/29 08:17:08;;;;;;;1.35;0.40;;;;;;;20.28;63.37;101206.75;5065154;28;20384;-66
2023/09/29 08:19:34;;;;;;;1.45;0.63;;;;;;;20.28;64.27;101207.59;5062957;28;20476;-66
2023/09/29 08:21:59;;;;;;;2.40;0.80;;;;;;;20.19;65.23;101212.19;5062619;28;20024;-66
2023/09/29 08:24:25;;;;;;;2.00;0.55;;;;;;;20.18;65.51;101205.25;5062994;28;20031;-66
2023/09/29 08:26:51;;;;;;;3.80;0.60;;;;;;;20.31;64.75;101201.09;5062771;28;20055;-66
2023/09/29 08:29:16;;;;;;;1.40;0.50;;;;;;;20.42;64.48;101198.75;5058578;28;20021;-66
2023/09/29 08:31:43;;;;;;;2.25;0.60;;;;;;;20.51;64.30;101205.56;5054742;28;20037;-66
2023/09/29 08:34:08;;;;;;;1.50;0.75;;;;;;;20.61;64.11;101202.59;5053523;28;20027;-66
2023/09/29 08:36:34;;;;;;;4.43;1.00;;;;;;;20.78;61.72;101198.63;5058307;28;20155;-66
2023/09/29 08:39:00;;;;;;;4.60;0.95;;;;;;;20.97;61.50;101206.88;5064129;28;20029;-66
2023/09/29 08:41:27;;;;;;;3.10;1.13;;;;;;;21.02;60.91;101204.47;5064540;28;20046;-66
2023/09/29 08:43:53;;;;;;;3.58;0.73;;;;;;;20.96;61.11;101205.25;5066304;28;20494;-67
2023/09/29 08:46:20;;;;;;;3.17;0.82;;;;;;;20.93;60.83;101205.63;5069010;28;20056;-66
2023/09/29 08:48:47;;;;;;;1.60;0.68;;;;;;;20.99;60.68;101200.38;5068578;28;20473;-66
2023/09/29 08:51:15;;;;;;;3.80;0.60;;;;;;;21.10;60.43;101201.66;5072738;28;20487;-66
2023/09/29 08:53:44;;;;;;;1.30;0.40;;;;;;;21.17;60.51;101197.22;5068132;28;20115;-66
2023/09/29 08:56:16;;;;;;;1.30;0.60;;;;;;;21.35;59.72;101205.47;5068784;28;20040;-66
2023/09/29 08:58:42;;;;;;;2.92;0.57;;;;;;;21.37;60.18;101198.16;5066816;28;20033;-69
2023/09/29 09:01:08;;;;;;;1.35;0.30;;;;;;;21.29;60.84;101200.16;5068422;28;20033;-68
2023/09/29 09:03:34;;;;;;;1.25;0.47;;;;;;;21.18;61.04;101204.97;5066538;28;20040;-66
2023/09/29 09:06:00;;;;;;;1.10;0.40;;;;;;;21.13;61.65;101201.28;5065449;28;20488;-66
2023/09/29 09:08:26;;;;;;;0.88;0.30;;;;;;;21.16;61.80;101198.25;5068236;28;20041;-66
2023/09/29 09:11:00;;;;;;;2.15;0.30;;;;;;;21.15;60.95;101200.06;5070019;28;20036;-66
2023/09/29 09:13:27;;;;;;;1.85;0.30;;;;;;;21.25;61.03;101197.09;5066786;28;20029;-66
2023/09/29 09:16:00;;;;;;;1.60;0.40;;;;;;;21.27;58.87;101202.22;5066887;28;20482;-66
2023/09/29 09:18:29;;;;;;;1.38;0.40;;;;;;;21.39;60.39;101198.78;5062136;28;20024;-66
2023/09/29 09:20:55;;;;;;;0.88;0.30;;;;;;;21.45;59.63;101189.22;5064433;28;20029;-66
2023/09/29 09:23:21;;;;;;;1.83;0.40;;;;;;;21.53;59.11;101189.03;5066236;28;20078;-66
2023/09/29 09:25:47;;;;;;;1.33;0.32;;;;;;;21.56;59.39;101188.66;5063597;28;20029;-66
2023/09/29 09:28:21;;;;;;;2.00;0.50;;;;;;;21.68;57.94;101188.91;5083951;28;20032;-66
2023/09/29 09:30:47;;;;;;;0.40;0.20;;;;;;;21.82;56.98;101185.25;5060654;28;20033;-66
2023/09/29 09:33:25;;;;;;;0.40;0.20;;;;;;;22.17;54.74;101181.47;5065814;28;20451;-65
2023/09/29 09:35:51;;;;;;;2.15;0.40;;;;;;;22.36;55.64;101184.31;5060220;28;20064;-66
2023/09/29 09:38:17;;;;;;;2.50;0.43;;;;;;;22.41;56.17;101177.38;5062577;28;20024;-66
2023/09/29 09:40:48;;;;;;;0.63;0.28;;;;;;;22.26;56.16;101170.63;5058459;28;20419;-66
2023/09/29 09:43:13;;;;;;;0.70;0.30;;;;;;;22.16;56.89;101176.34;5062816;28;20025;-66
2023/09/29 09:45:42;;;;;;;0.65;0.30;;;;;;;22.21;56.73;101173.09;5060483;28;20048;-65
2023/09/29 09:48:10;;;;;;;2.78;0.30;;;;;;;22.17;57.38;101170.03;5063752;28;20427;-66
2023/09/29 09:50:40;;;;;;;1.27;0.30;;;;;;;22.23;55.71;101168.38;5062744;28;20032;-65
2023/09/29 09:53:09;;;;;;;1.33;0.40;;;;;;;22.49;55.86;101169.19;5066620;28;20040;-65
2023/09/29 09:55:50;;;;;;;1.33;0.30;;;;;;;22.38;55.94;101172.47;5061669;28;20029;-65
2023/09/29 09:58:17;;;;;;;0.70;0.30;;;;;;;22.44;56.12;101165.53;5069598;28;20154;-66
2023/09/29 10:00:47;;;;;;;1.45;0.40;;;;;;;22.52;54.31;101166.13;5064495;28;20086;-66
2023/09/29 10:03:16;;;;;;;0.60;0.30;;;;;;;22.72;54.80;101160.75;5065426;28;20036;-65
2023/09/29 10:05:51;;;;;;;1.10;0.30;;;;;;;22.66;54.68;101172.25;5069978;28;20089;-65
2023/09/29 10:08:24;;;;;;;0.52;0.30;;;;;;;22.48;55.15;101169.41;5069992;28;20048;-65
2023/09/29 10:10:50;;;;;;;0.88;0.25;;;;;;;22.57;54.93;101168.16;5069873;28;20032;-65
2023/09/29 10:13:16;;;;;;;0.98;0.30;;;;;;;22.63;54.92;101175.31;5064174;28;20020;-65
2023/09/29 10:15:56;;;;;;;1.00;0.30;;;;;;;22.56;52.48;101169.19;5058407;28;20094;-65
2023/09/29 10:18:22;;;;;;;2.75;0.40;;;;;;;22.65;53.00;101160.00;5063768;28;20360;-65
2023/09/29 10:21:00;;;;;;;1.33;0.38;;;;;;;23.24;47.83;101171.47;5072076;28;20020;-65
2023/09/29 10:23:26;;;;;;;1.00;0.40;;;;;;;23.55;48.62;101176.09;5064596;28;20032;-65
2023/09/29 10:25:59;;;;;;;0.93;0.28;;;;;;;23.61;49.67;101169.94;5061712;28;20078;-66
2023/09/29 10:28:35;;;;;;;0.85;0.20;;;;;;;23.58;48.61;101168.50;5065530;28;20036;-65
2023/09/29 10:31:08;;;;;;;1.08;0.30;;;;;;;23.56;48.80;101159.09;5070075;28;20024;-66
2023/09/29 10:33:54;;;;;;;0.50;0.22;;;;;;;23.33;49.05;101164.91;5070574;28;20055;-67
2023/09/29 10:36:23;;;;;;;0.80;0.32;;;;;;;23.26;50.48;101162.28;5070844;28;20490;-67
2023/09/29 10:38:49;;;;;;;2.45;0.20;;;;;;;23.16;50.90;101156.56;5072231;28;20028;-66
2023/09/29 10:41:15;;;;;;;1.63;0.40;;;;;;;23.22;50.93;101154.94;5075371;28;20036;-67
2023/09/29 10:43:48;;;;;;;0.82;0.30;;;;;;;23.57;49.75;101166.88;5069220;28;20025;-67
2023/09/29 10:46:15;;;;;;;0.98;0.32;;;;;;;23.75;49.51;101163.47;5072339;28;20039;-67
2023/09/29 10:48:48;;;;;;;1.52;0.30;;;;;;;23.79;49.61;101162.84;5068457;28;20025;-67
2023/09/29 10:51:22;;;;;;;0.40;0.30;;;;;;;23.68;49.77;101166.16;5072488;28;20042;-67
2023/09/29 10:53:48;;;;;;;2.05;0.30;;;;;;;23.57;50.64;101153.56;5070078;28;20036;-67
2023/09/29 10:56:20;;;;;;;1.08;0.40;;;;;;;23.45;51.09;101158.72;5070252;28;20115;-66
2023/09/29 10:58:46;;;;;;;1.05;0.30;;;;;;;23.43;51.14;101150.13;5071357;28;20039;-67
2023/09/29 11:01:18;;;;;;;0.65;0.30;;;;;;;23.54;50.16;101147.88;5070447;28;20060;-67
2023/09/29 11:03:44;;;;;;;1.75;0.30;;;;;;;23.69;49.93;101154.50;5069988;28;20022;-67
2023/09/29 11:06:17;;;;;;;2.53;0.20;;;;;;;23.91;45.99;101151.50;5067516;28;20152;-67
2023/09/29 11:08:53;;;;;;;2.75;0.20;;;;;;;23.90;46.55;101145.38;5068169;28;20036;-66
2023/09/29 11:11:19;;;;;;;2.08;0.40;;;;;;;23.88;47.75;101146.63;5065753;28;20020;-67
2023/09/29 11:13:55;;;;;;;0.68;0.20;;;;;;;23.94;46.24;101143.91;5067177;28;20039;-66
2023/09/29 11:16:25;;;;;;;1.80;0.30;;;;;;;23.96;47.46;101136.53;5064088;28;20025;-67
2023/09/29 11:18:56;;;;;;;1.23;0.30;;;;;;;23.91;48.11;101139.03;5065393;28;20037;-67
2023/09/29 11:21:35;;;;;;;0.88;0.22;;;;;;;23.70;48.56;101131.38;5063056;28;20027;-68
2023/09/29 11:24:09;;;;;;;1.73;0.20;;;;;;;23.72;48.01;101131.97;5061906;28;20060;-67
2023/09/29 11:26:38;;;;;;;0.73;0.20;;;;;;;23.65;48.40;101128.53;5062886;28;20037;-67
2023/09/29 11:29:04;;;;;;;0.65;0.30;;;;;;;23.66;48.13;101128.31;5061409;28;20510;-67